createdAt,value
2023-04-29T00:00:09.094Z,10.91
2023-04-29T00:02:35.765Z,10.89
2023-04-29T00:05:05.133Z,10.92
2023-04-29T00:07:32.450Z,10.88
2023-04-29T00:09:59.169Z,10.90
2023-04-29T00:12:25.927Z,10.89
2023-04-29T00:14:52.349Z,10.89
2023-04-29T00:17:18.745Z,10.94
2023-04-29T00:19:45.319Z,10.93
2023-04-29T00:22:11.722Z,10.92
2023-04-29T00:24:38.083Z,10.87
2023-04-29T00:27:06.150Z,10.87
2023-04-29T00:29:32.623Z,10.93
2023-04-29T00:31:59.101Z,10.93
2023-04-29T00:34:25.539Z,10.94
2023-04-29T00:36:51.973Z,10.93
2023-04-29T00:39:18.435Z,10.93
2023-04-29T00:41:44.845Z,10.92
2023-04-29T00:44:11.537Z,10.95
2023-04-29T00:46:38.237Z,10.96
2023-04-29T00:49:04.843Z,10.99
2023-04-29T00:51:31.367Z,11.01
2023-04-29T00:53:57.804Z,11.03
2023-04-29T00:56:24.581Z,11.04
2023-04-29T00:58:52.541Z,10.99
2023-04-29T01:01:20.164Z,11.03
2023-04-29T01:03:46.885Z,11.01
2023-04-29T01:06:47.621Z,11.00
2023-04-29T01:09:43.917Z,10.95
2023-04-29T01:12:43.623Z,10.98
2023-04-29T01:15:23.225Z,11.00
2023-04-29T01:18:12.824Z,11.02
2023-04-29T01:20:39.872Z,10.98
2023-04-29T01:23:06.281Z,10.95
2023-04-29T01:25:32.764Z,10.97
2023-04-29T01:28:16.992Z,10.97
2023-04-29T01:31:06.652Z,10.96
2023-04-29T01:33:40.918Z,10.95
2023-04-29T01:36:14.001Z,10.94
2023-04-29T01:39:00.735Z,10.93
2023-04-29T01:41:58.907Z,10.91
2023-04-29T01:44:29.076Z,10.91
2023-04-29T01:46:56.436Z,10.96
2023-04-29T01:49:26.724Z,10.99
2023-04-29T01:51:53.430Z,11.02
2023-04-29T01:54:20.984Z,11.00
2023-04-29T01:56:47.450Z,11.02
2023-04-29T01:59:13.831Z,11.05
2023-04-29T02:01:40.244Z,11.06
2023-04-29T02:04:06.866Z,11.08
2023-04-29T02:06:33.543Z,11.04
2023-04-29T02:08:59.997Z,11.03
2023-04-29T02:11:26.574Z,10.97
2023-04-29T02:13:54.638Z,10.99
2023-04-29T02:16:21.156Z,10.98
2023-04-29T02:18:47.613Z,10.96
2023-04-29T02:21:13.977Z,10.97
2023-04-29T02:23:40.661Z,10.95
2023-04-29T02:26:07.248Z,10.98
2023-04-29T02:28:35.023Z,11.00
2023-04-29T02:31:01.685Z,10.99
2023-04-29T02:33:28.116Z,10.96
2023-04-29T02:35:54.539Z,10.98
2023-04-29T02:38:21.003Z,10.98
2023-04-29T02:40:47.707Z,10.98
2023-04-29T02:43:14.308Z,11.00
2023-04-29T02:45:40.943Z,11.02
2023-04-29T02:48:07.591Z,11.02
2023-04-29T02:50:34.132Z,11.03
2023-04-29T02:53:00.556Z,11.02
2023-04-29T02:55:27.027Z,11.01
2023-04-29T02:57:53.513Z,11.00
2023-04-29T03:00:20.624Z,10.95
2023-04-29T03:02:47.116Z,10.96
2023-04-29T03:05:13.691Z,10.97
2023-04-29T03:07:40.093Z,10.91
2023-04-29T03:10:06.956Z,10.96
2023-04-29T03:12:34.755Z,10.98
2023-04-29T03:15:01.254Z,10.97
2023-04-29T03:17:27.757Z,10.96
2023-04-29T03:19:54.604Z,10.99
2023-04-29T03:22:21.194Z,10.96
2023-04-29T03:24:47.615Z,10.94
2023-04-29T03:27:14.158Z,10.93
2023-04-29T03:29:40.584Z,10.94
2023-04-29T03:32:07.297Z,10.89
2023-04-29T03:34:34.304Z,10.90
2023-04-29T03:37:01.316Z,10.90
2023-04-29T03:39:34.448Z,10.92
2023-04-29T03:42:01.435Z,10.91
2023-04-29T03:44:29.158Z,10.95
2023-04-29T03:46:55.722Z,10.94
2023-04-29T03:49:22.637Z,10.95
2023-04-29T03:51:49.149Z,10.96
2023-04-29T03:54:15.620Z,10.94
2023-04-29T03:56:42.013Z,10.96
2023-04-29T03:59:08.399Z,10.96
2023-04-29T04:01:34.927Z,11.00
2023-04-29T04:04:01.663Z,11.01
2023-04-29T04:06:28.199Z,11.03
2023-04-29T04:08:54.577Z,11.02
2023-04-29T04:11:20.960Z,11.07
2023-04-29T04:13:47.366Z,11.09
2023-04-29T04:16:13.807Z,11.06
2023-04-29T04:18:40.371Z,11.05
2023-04-29T04:21:11.162Z,11.06
2023-04-29T04:23:40.411Z,11.05
2023-04-29T04:26:07.217Z,11.03
2023-04-29T04:28:33.698Z,11.07
2023-04-29T04:31:00.176Z,11.02
2023-04-29T04:33:27.387Z,10.99
2023-04-29T04:35:53.902Z,11.00
2023-04-29T04:38:20.283Z,10.97
2023-04-29T04:40:46.992Z,10.97
2023-04-29T04:43:13.372Z,10.93
2023-04-29T04:45:39.782Z,10.95
2023-04-29T04:48:06.871Z,10.91
2023-04-29T04:50:33.361Z,10.91
2023-04-29T04:52:59.776Z,10.86
2023-04-29T04:55:26.280Z,10.85
2023-04-29T04:57:52.701Z,10.84
2023-04-29T05:00:19.369Z,10.76
2023-04-29T05:02:45.927Z,10.87
2023-04-29T05:05:12.480Z,10.87
2023-04-29T05:07:38.860Z,10.86
2023-04-29T05:10:06.601Z,10.88
2023-04-29T05:12:35.103Z,10.90
2023-04-29T05:15:02.119Z,10.89
2023-04-29T05:17:28.735Z,10.91
2023-04-29T05:19:55.171Z,10.92
2023-04-29T05:22:21.607Z,10.95
2023-04-29T05:24:52.702Z,10.95
2023-04-29T05:27:19.273Z,10.97
2023-04-29T05:29:45.656Z,10.97
2023-04-29T05:32:13.489Z,11.01
2023-04-29T05:34:40.360Z,11.07
2023-04-29T05:37:06.751Z,11.04
2023-04-29T05:39:33.190Z,11.07
2023-04-29T05:41:59.844Z,11.07
2023-04-29T05:44:26.346Z,11.17
2023-04-29T05:46:52.751Z,11.18
2023-04-29T05:49:19.158Z,11.25
2023-04-29T05:51:45.664Z,11.29
2023-04-29T05:54:12.092Z,11.33
2023-04-29T05:56:38.559Z,11.38
2023-04-29T05:59:04.978Z,11.32
2023-04-29T06:01:31.413Z,11.32
2023-04-29T06:03:57.929Z,11.36
2023-04-29T06:06:24.578Z,11.35
2023-04-29T06:08:51.293Z,11.38
2023-04-29T06:11:17.736Z,11.47
2023-04-29T06:13:44.513Z,11.44
2023-04-29T06:16:12.004Z,11.46
2023-04-29T06:18:38.447Z,11.39
2023-04-29T06:21:05.334Z,11.41
2023-04-29T06:23:32.734Z,11.45
2023-04-29T06:25:59.152Z,11.49
2023-04-29T06:28:25.538Z,11.50
2023-04-29T06:30:51.991Z,11.46
2023-04-29T06:33:18.429Z,11.47
2023-04-29T06:35:44.797Z,11.45
2023-04-29T06:38:11.298Z,11.48
2023-04-29T06:40:37.691Z,11.46
2023-04-29T06:43:04.530Z,11.49
2023-04-29T06:45:31.525Z,11.53
2023-04-29T06:47:58.010Z,11.59
2023-04-29T06:50:24.421Z,11.61
2023-04-29T06:52:50.937Z,11.67
2023-04-29T06:55:17.852Z,11.70
2023-04-29T06:57:44.269Z,11.84
2023-04-29T07:00:11.168Z,11.93
2023-04-29T07:02:39.161Z,11.95
2023-04-29T07:05:06.466Z,11.94
2023-04-29T07:07:33.065Z,11.96
2023-04-29T07:09:59.498Z,12.06
2023-04-29T07:12:26.522Z,12.08
2023-04-29T07:14:53.255Z,12.07
2023-04-29T07:17:20.699Z,12.07
2023-04-29T07:19:47.215Z,12.10
2023-04-29T07:22:13.706Z,12.23
2023-04-29T07:24:40.092Z,12.31
2023-04-29T07:27:06.880Z,12.37
2023-04-29T07:29:33.497Z,12.35
2023-04-29T07:31:59.954Z,12.32
2023-04-29T07:34:26.400Z,12.35
2023-04-29T07:36:53.132Z,12.33
2023-04-29T07:39:19.558Z,12.26
2023-04-29T07:41:46.006Z,12.26
2023-04-29T07:44:12.460Z,12.28
2023-04-29T07:46:38.960Z,12.26
2023-04-29T07:49:06.908Z,12.33
2023-04-29T07:51:33.466Z,13.17
2023-04-29T07:53:59.848Z,14.48
2023-04-29T07:56:26.353Z,15.72
2023-04-29T07:58:52.786Z,16.62
2023-04-29T08:01:19.145Z,17.23
2023-04-29T08:03:45.856Z,17.88
2023-04-29T08:06:12.640Z,18.51
2023-04-29T08:08:39.147Z,19.00
2023-04-29T08:11:06.649Z,19.15
2023-04-29T08:13:33.165Z,19.46
2023-04-29T08:15:59.589Z,19.80
2023-04-29T08:18:26.279Z,19.93
2023-04-29T08:20:53.222Z,20.40
2023-04-29T08:23:19.702Z,20.69
2023-04-29T08:25:46.271Z,20.79
2023-04-29T08:28:13.061Z,20.78
2023-04-29T08:30:41.047Z,20.98
2023-04-29T08:33:08.284Z,21.29
2023-04-29T08:35:37.518Z,21.40
2023-04-29T08:38:05.868Z,21.19
2023-04-29T08:40:50.431Z,21.17
2023-04-29T08:43:17.105Z,21.15
2023-04-29T08:45:44.034Z,21.03
2023-04-29T08:48:10.775Z,20.93
2023-04-29T08:50:40.556Z,21.04
2023-04-29T08:53:11.022Z,21.25
2023-04-29T08:55:42.908Z,21.18
2023-04-29T08:58:10.762Z,21.24
2023-04-29T09:00:37.430Z,21.33
2023-04-29T09:03:21.118Z,20.95
2023-04-29T09:05:50.519Z,20.55
2023-04-29T09:08:17.175Z,20.26
2023-04-29T09:10:43.626Z,20.32
2023-04-29T09:13:23.214Z,20.10
2023-04-29T09:15:49.644Z,20.04
2023-04-29T09:18:51.348Z,19.74
2023-04-29T09:21:25.993Z,19.74
2023-04-29T09:24:02.823Z,19.68
2023-04-29T09:26:55.407Z,19.82
2023-04-29T09:29:22.308Z,19.54
2023-04-29T09:31:49.542Z,19.55
2023-04-29T09:34:16.456Z,19.58
2023-04-29T09:36:48.503Z,19.23
2023-04-29T09:39:22.360Z,19.12
2023-04-29T09:41:54.987Z,19.02
2023-04-29T09:44:23.326Z,18.69
2023-04-29T09:47:07.826Z,18.44
2023-04-29T09:49:40.640Z,18.22
2023-04-29T09:52:11.654Z,18.23
2023-04-29T09:54:39.813Z,18.13
2023-04-29T09:57:08.920Z,18.14
2023-04-29T09:59:37.450Z,18.42
2023-04-29T10:02:21.026Z,18.40
2023-04-29T10:04:51.842Z,18.03
2023-04-29T10:07:19.038Z,17.97
2023-04-29T10:09:47.362Z,18.03
2023-04-29T10:12:18.762Z,18.06
2023-04-29T10:14:58.702Z,18.17
2023-04-29T10:17:46.493Z,18.07
2023-04-29T10:20:26.967Z,17.69
2023-04-29T10:22:56.381Z,17.63
2023-04-29T10:25:24.670Z,17.63
2023-04-29T10:27:54.422Z,17.46
2023-04-29T10:30:21.922Z,17.45
2023-04-29T10:32:51.665Z,17.11
2023-04-29T10:35:20.473Z,16.96
2023-04-29T10:37:48.734Z,16.91
2023-04-29T10:40:36.329Z,16.81
2023-04-29T10:43:02.693Z,16.56
2023-04-29T10:45:35.845Z,16.39
2023-04-29T10:48:02.713Z,16.23
2023-04-29T10:50:33.464Z,16.16
2023-04-29T10:53:04.017Z,16.09
2023-04-29T10:55:31.546Z,16.12
2023-04-29T10:57:58.059Z,16.20
2023-04-29T11:00:28.697Z,16.21
2023-04-29T11:02:56.309Z,16.25
2023-04-29T11:05:33.843Z,16.24
2023-04-29T11:08:16.252Z,16.15
2023-04-29T11:10:43.601Z,16.22
2023-04-29T11:13:27.084Z,16.37
2023-04-29T11:15:54.583Z,16.47
2023-04-29T11:18:21.078Z,16.54
2023-04-29T11:21:14.073Z,16.65
2023-04-29T11:23:45.124Z,16.79
2023-04-29T11:26:11.612Z,16.87
2023-04-29T11:28:39.263Z,17.02
2023-04-29T11:31:07.535Z,17.16
2023-04-29T11:33:34.187Z,17.22
2023-04-29T11:36:00.690Z,17.26
2023-04-29T11:38:28.082Z,17.33
2023-04-29T11:40:58.250Z,17.40
2023-04-29T11:43:25.030Z,17.46
2023-04-29T11:45:52.826Z,17.42
2023-04-29T11:48:26.299Z,17.39
2023-04-29T11:50:57.740Z,17.59
2023-04-29T11:53:25.906Z,17.80
2023-04-29T11:55:55.624Z,17.98
2023-04-29T11:58:22.758Z,18.22
2023-04-29T12:00:49.294Z,18.38
2023-04-29T12:03:17.233Z,18.47
2023-04-29T12:05:54.533Z,18.73
2023-04-29T12:08:22.258Z,18.91
2023-04-29T12:10:49.471Z,18.93
2023-04-29T12:13:17.524Z,18.95
2023-04-29T12:15:45.572Z,18.89
2023-04-29T12:18:12.623Z,19.01
2023-04-29T12:20:39.289Z,19.12
2023-04-29T12:23:16.215Z,19.27
2023-04-29T12:25:42.851Z,19.38
2023-04-29T12:28:15.947Z,19.51
2023-04-29T12:30:45.175Z,19.63
2023-04-29T12:33:16.158Z,19.62
2023-04-29T12:35:42.523Z,19.77
2023-04-29T12:38:09.412Z,19.85
2023-04-29T12:40:35.871Z,20.15
2023-04-29T12:43:09.179Z,20.04
2023-04-29T12:45:35.585Z,20.47
2023-04-29T12:48:05.634Z,20.67
2023-04-29T12:50:37.751Z,20.44
2023-04-29T12:53:06.389Z,20.39
2023-04-29T12:55:37.337Z,20.53
2023-04-29T12:58:04.971Z,20.75
2023-04-29T13:00:32.275Z,21.01
2023-04-29T13:02:58.909Z,21.29
2023-04-29T13:05:25.469Z,21.38
2023-04-29T13:07:52.378Z,21.59
2023-04-29T13:10:18.774Z,21.77
2023-04-29T13:12:45.286Z,22.08
2023-04-29T13:15:12.126Z,22.49
2023-04-29T13:17:38.921Z,22.55
2023-04-29T13:20:06.532Z,22.47
2023-04-29T13:22:33.107Z,22.60
2023-04-29T13:24:59.539Z,22.82
2023-04-29T13:27:25.945Z,22.92
2023-04-29T13:29:52.427Z,22.76
2023-04-29T13:32:21.377Z,22.64
2023-04-29T13:34:47.944Z,22.68
2023-04-29T13:37:14.315Z,22.74
2023-04-29T13:39:44.367Z,22.74
2023-04-29T13:42:15.320Z,22.72
2023-04-29T13:44:51.906Z,22.38
2023-04-29T13:47:25.023Z,22.43
2023-04-29T13:55:14.915Z,22.54
2023-04-29T14:00:30.954Z,22.90
2023-04-29T14:05:25.769Z,22.52
2023-04-29T14:07:52.351Z,22.57
2023-04-29T14:10:18.866Z,22.76
2023-04-29T14:12:45.589Z,22.55
2023-04-29T14:15:12.120Z,22.42
2023-04-29T14:17:38.607Z,22.13
2023-04-29T14:20:05.680Z,21.88
2023-04-29T14:22:32.252Z,21.71
2023-04-29T14:24:58.617Z,21.60
2023-04-29T14:27:24.987Z,21.39
2023-04-29T14:29:51.369Z,21.21
2023-04-29T14:32:17.786Z,20.69
2023-04-29T14:34:44.195Z,20.38
2023-04-29T14:37:11.226Z,20.16
2023-04-29T14:39:38.005Z,20.00
2023-04-29T14:42:04.615Z,19.92
2023-04-29T14:44:31.073Z,20.00
2023-04-29T14:46:57.487Z,19.86
2023-04-29T14:49:23.915Z,19.84
2023-04-29T14:51:50.671Z,19.83
2023-04-29T14:54:17.730Z,19.70
2023-04-29T14:56:44.152Z,19.52
2023-04-29T14:59:11.024Z,19.55
2023-04-29T15:01:38.461Z,19.58
2023-04-29T15:04:05.590Z,19.55
2023-04-29T15:06:32.379Z,19.54
2023-04-29T15:08:58.855Z,19.53
2023-04-29T15:11:26.040Z,19.71
2023-04-29T15:13:52.491Z,19.68
2023-04-29T15:16:19.370Z,19.49
2023-04-29T15:18:46.428Z,19.34
2023-04-29T15:21:12.925Z,19.34
2023-04-29T15:23:39.507Z,19.35
2023-04-29T15:26:07.069Z,19.20
2023-04-29T15:28:33.550Z,19.04
2023-04-29T15:31:01.797Z,18.82
2023-04-29T15:33:28.208Z,18.73
2023-04-29T15:35:55.908Z,18.81
2023-04-29T15:38:22.326Z,18.84
2023-04-29T15:40:48.766Z,18.78
2023-04-29T15:43:15.492Z,18.79
2023-04-29T15:45:42.472Z,18.84
2023-04-29T15:48:08.988Z,18.96
2023-04-29T15:50:35.498Z,19.11
2023-04-29T15:53:01.928Z,19.03
2023-04-29T15:55:28.494Z,18.95
2023-04-29T15:57:54.907Z,18.97
2023-04-29T16:00:21.310Z,19.01
2023-04-29T16:02:47.766Z,18.90
2023-04-29T16:05:14.262Z,18.98
2023-04-29T16:07:40.666Z,18.94
2023-04-29T16:10:07.316Z,18.93
2023-04-29T16:12:33.903Z,18.94
2023-04-29T16:15:00.283Z,18.82
2023-04-29T16:17:27.498Z,18.73
2023-04-29T16:19:54.247Z,18.80
2023-04-29T16:22:21.111Z,18.69
2023-04-29T16:24:49.345Z,18.37
2023-04-29T16:27:16.301Z,18.37
2023-04-29T16:29:42.868Z,18.38
2023-04-29T16:32:09.229Z,18.26
2023-04-29T16:34:35.654Z,18.18
2023-04-29T16:37:02.171Z,18.14
2023-04-29T16:39:28.516Z,18.06
2023-04-29T16:41:55.023Z,17.92
2023-04-29T16:44:21.560Z,17.86
2023-04-29T16:46:47.969Z,17.82
2023-04-29T16:49:15.503Z,17.82
2023-04-29T16:51:41.898Z,17.69
2023-04-29T16:54:08.391Z,17.49
2023-04-29T16:56:34.842Z,17.41
2023-04-29T16:59:01.284Z,17.36
2023-04-29T17:01:28.760Z,17.26
2023-04-29T17:03:55.484Z,17.10
2023-04-29T17:06:21.894Z,17.02
2023-04-29T17:08:51.340Z,16.90
2023-04-29T17:11:18.273Z,16.79
2023-04-29T17:13:44.934Z,16.70
2023-04-29T17:16:11.501Z,16.75
2023-04-29T17:18:37.962Z,16.72
2023-04-29T17:21:04.532Z,16.59
2023-04-29T17:23:31.059Z,16.57
2023-04-29T17:25:57.529Z,16.23
2023-04-29T17:28:24.269Z,16.11
2023-04-29T17:30:51.746Z,16.05
2023-04-29T17:33:18.218Z,16.00
2023-04-29T17:35:45.240Z,15.94
2023-04-29T17:38:12.059Z,15.79
2023-04-29T17:40:38.575Z,15.66
2023-04-29T17:43:04.933Z,15.59
2023-04-29T17:45:31.619Z,15.49
2023-04-29T17:47:58.162Z,15.34
2023-04-29T17:50:24.657Z,15.19
2023-04-29T17:52:51.135Z,15.16
2023-04-29T17:55:17.664Z,14.98
2023-04-29T17:57:44.170Z,14.85
2023-04-29T18:00:11.157Z,14.84
2023-04-29T18:02:37.756Z,14.89
2023-04-29T18:05:04.455Z,14.84
2023-04-29T18:07:30.926Z,14.85
2023-04-29T18:09:57.723Z,14.85
2023-04-29T18:12:25.087Z,14.76
2023-04-29T18:14:56.280Z,14.62
2023-04-29T18:17:23.183Z,14.55
2023-04-29T18:19:49.906Z,14.52
2023-04-29T18:22:16.590Z,14.41
2023-04-29T18:24:43.287Z,14.28
2023-04-29T18:27:09.754Z,14.31
2023-04-29T18:29:36.160Z,14.31
2023-04-29T18:32:03.182Z,14.28
2023-04-29T18:34:30.704Z,14.18
2023-04-29T18:36:57.155Z,14.17
2023-04-29T18:39:23.552Z,14.18
2023-04-29T18:41:50.018Z,14.15
2023-04-29T18:44:16.455Z,14.07
2023-04-29T18:46:42.977Z,14.09
2023-04-29T18:49:15.481Z,14.01
2023-04-29T18:51:46.374Z,13.90
2023-04-29T18:54:17.755Z,13.83
2023-04-29T18:56:46.588Z,13.72
2023-04-29T18:59:15.857Z,13.64
2023-04-29T19:01:43.139Z,13.58
2023-04-29T19:04:10.212Z,13.51
2023-04-29T19:06:37.005Z,13.52
2023-04-29T19:09:03.825Z,13.43
2023-04-29T19:11:30.259Z,13.43
2023-04-29T19:13:56.716Z,13.44
2023-04-29T19:16:23.816Z,13.45
2023-04-29T19:18:50.477Z,13.44
2023-04-29T19:21:18.216Z,13.32
2023-04-29T19:23:44.684Z,13.30
2023-04-29T19:26:11.206Z,13.29
2023-04-29T19:28:37.651Z,13.27
2023-04-29T19:31:04.289Z,13.20
2023-04-29T19:33:30.967Z,13.15
2023-04-29T19:35:57.488Z,13.09
2023-04-29T19:38:24.262Z,13.11
2023-04-29T19:40:50.716Z,13.11
2023-04-29T19:43:17.874Z,13.11
2023-04-29T19:45:44.598Z,13.14
2023-04-29T19:48:11.335Z,13.14
2023-04-29T19:50:38.559Z,13.15
2023-04-29T19:53:04.947Z,13.08
2023-04-29T19:55:31.343Z,13.03
2023-04-29T19:57:58.449Z,13.00
2023-04-29T20:00:24.894Z,12.93
2023-04-29T20:02:52.194Z,12.88
2023-04-29T20:05:19.615Z,12.83
2023-04-29T20:07:46.065Z,12.83
2023-04-29T20:10:12.629Z,12.79
2023-04-29T20:12:40.367Z,12.67
2023-04-29T20:15:08.009Z,12.62
2023-04-29T20:17:34.592Z,12.60
2023-04-29T20:20:02.311Z,12.56
2023-04-29T20:22:29.310Z,12.50
2023-04-29T20:24:55.690Z,12.40
2023-04-29T20:27:22.290Z,12.39
2023-04-29T20:29:48.726Z,12.42
2023-04-29T20:32:15.191Z,12.43
2023-04-29T20:34:41.842Z,12.41
2023-04-29T20:37:08.804Z,12.46
2023-04-29T20:39:35.364Z,12.45
2023-04-29T20:42:03.073Z,12.47
2023-04-29T20:44:29.963Z,12.43
2023-04-29T20:46:56.391Z,12.38
2023-04-29T20:49:22.856Z,12.35
2023-04-29T20:51:49.279Z,12.32
2023-04-29T20:54:15.684Z,12.31
2023-04-29T20:56:42.158Z,12.30
2023-04-29T20:59:08.562Z,12.26
2023-04-29T21:01:36.943Z,12.23
2023-04-29T21:04:04.980Z,12.16
2023-04-29T21:06:32.067Z,12.16
2023-04-29T21:08:58.607Z,12.08
2023-04-29T21:11:25.079Z,12.07
2023-04-29T21:13:51.759Z,12.08
2023-04-29T21:16:19.020Z,12.13
2023-04-29T21:18:45.632Z,12.13
2023-04-29T21:21:12.435Z,12.10
2023-04-29T21:23:39.086Z,12.07
2023-04-29T21:26:05.444Z,12.03
2023-04-29T21:28:31.935Z,11.95
2023-04-29T21:30:58.636Z,11.95
2023-04-29T21:33:25.102Z,11.92
2023-04-29T21:35:51.832Z,11.93
2023-04-29T21:38:18.616Z,11.88
2023-04-29T21:40:47.228Z,11.87
2023-04-29T21:43:14.533Z,11.86
2023-04-29T21:45:41.568Z,11.86
2023-04-29T21:48:14.912Z,11.86
2023-04-29T21:50:42.227Z,11.85
2023-04-29T21:53:08.610Z,11.84
2023-04-29T21:55:35.174Z,11.85
2023-04-29T21:58:01.632Z,11.83
2023-04-29T22:00:35.982Z,11.83
2023-04-29T22:03:03.616Z,11.80
2023-04-29T22:05:30.556Z,11.80
2023-04-29T22:08:00.382Z,11.78
2023-04-29T22:10:26.900Z,11.76
2023-04-29T22:12:53.313Z,11.75
2023-04-29T22:15:28.147Z,11.74
2023-04-29T22:17:55.504Z,11.72
2023-04-29T22:20:21.934Z,11.71
2023-04-29T22:22:48.300Z,11.71
2023-04-29T22:25:14.672Z,11.72
2023-04-29T22:27:41.130Z,11.68
2023-04-29T22:30:08.244Z,11.67
2023-04-29T22:32:34.784Z,11.64
2023-04-29T22:35:01.467Z,11.63
2023-04-29T22:37:27.917Z,11.57
2023-04-29T22:39:54.640Z,11.56
2023-04-29T22:42:21.300Z,11.54
2023-04-29T22:44:47.646Z,11.52
2023-04-29T22:47:14.182Z,11.49
2023-04-29T22:49:40.951Z,11.47
2023-04-29T22:52:07.459Z,11.45
2023-04-29T22:54:33.847Z,11.37
2023-04-29T22:57:00.219Z,11.27
2023-04-29T22:59:26.622Z,11.23
2023-04-29T23:01:53.087Z,11.20
2023-04-29T23:04:20.207Z,11.19
2023-04-29T23:06:46.685Z,11.13
2023-04-29T23:09:13.186Z,11.07
2023-04-29T23:11:39.619Z,11.02
2023-04-29T23:14:06.190Z,10.94
2023-04-29T23:16:32.925Z,10.92
2023-04-29T23:18:59.521Z,10.89
2023-04-29T23:21:27.102Z,10.90
2023-04-29T23:23:54.054Z,10.89
2023-04-29T23:26:20.795Z,10.90
2023-04-29T23:28:47.220Z,10.90
2023-04-29T23:31:13.701Z,10.88
2023-04-29T23:33:40.138Z,10.86
2023-04-29T23:36:06.595Z,10.83
2023-04-29T23:38:33.049Z,10.83
2023-04-29T23:40:59.472Z,10.84
2023-04-29T23:43:25.974Z,10.81
2023-04-29T23:45:52.798Z,10.79
2023-04-29T23:48:19.263Z,10.77
2023-04-29T23:50:47.143Z,10.74
2023-04-29T23:53:13.600Z,10.73
2023-04-29T23:55:40.064Z,10.69
2023-04-29T23:58:07.486Z,10.70
